sensor_id;sensor_type;location;lat;lon;timestamp;P1;durP1;ratioP1;P2;durP2;ratioP2
68250;SDS011;55066;51.560;4.642;2022-09-27T00:02:22;1.37;;;0.40;;
68250;SDS011;55066;51.560;4.642;2022-09-27T00:04:47;1.52;;;0.30;;
68250;SDS011;55066;51.560;4.642;2022-09-27T00:07:13;3.50;;;0.30;;
68250;SDS011;55066;51.560;4.642;2022-09-27T00:09:38;1.10;;;0.30;;
68250;SDS011;55066;51.560;4.642;2022-09-27T00:12:03;2.93;;;0.30;;
68250;SDS011;55066;51.560;4.642;2022-09-27T00:14:33;2.00;;;0.25;;
68250;SDS011;55066;51.560;4.642;2022-09-27T00:16:58;2.07;;;0.30;;
68250;SDS011;55066;51.560;4.642;2022-09-27T00:19:23;3.83;;;0.33;;
68250;SDS011;55066;51.560;4.642;2022-09-27T00:21:49;3.42;;;0.30;;
68250;SDS011;55066;51.560;4.642;2022-09-27T00:24:16;3.63;;;0.70;;
68250;SDS011;55066;51.560;4.642;2022-09-27T00:26:46;2.50;;;0.40;;
68250;SDS011;55066;51.560;4.642;2022-09-27T00:29:13;2.70;;;0.50;;
68250;SDS011;55066;51.560;4.642;2022-09-27T00:31:39;6.05;;;0.70;;
68250;SDS011;55066;51.560;4.642;2022-09-27T00:34:06;4.20;;;0.90;;
68250;SDS011;55066;51.560;4.642;2022-09-27T00:36:35;2.58;;;0.60;;
68250;SDS011;55066;51.560;4.642;2022-09-27T00:39:00;3.50;;;0.60;;
68250;SDS011;55066;51.560;4.642;2022-09-27T00:43:56;7.75;;;0.70;;
68250;SDS011;55066;51.560;4.642;2022-09-27T00:46:27;3.13;;;0.63;;
68250;SDS011;55066;51.560;4.642;2022-09-27T00:51:37;2.00;;;0.50;;
68250;SDS011;55066;51.560;4.642;2022-09-27T00:54:05;2.33;;;0.65;;
68250;SDS011;55066;51.560;4.642;2022-09-27T00:56:34;2.58;;;0.40;;
68250;SDS011;55066;51.560;4.642;2022-09-27T00:59:01;4.20;;;0.60;;
68250;SDS011;55066;51.560;4.642;2022-09-27T01:01:31;2.50;;;0.50;;
68250;SDS011;55066;51.560;4.642;2022-09-27T01:04:01;3.13;;;0.50;;
68250;SDS011;55066;51.560;4.642;2022-09-27T01:06:31;3.60;;;0.40;;
68250;SDS011;55066;51.560;4.642;2022-09-27T01:08:56;5.25;;;0.57;;
68250;SDS011;55066;51.560;4.642;2022-09-27T01:11:37;4.82;;;0.50;;
68250;SDS011;55066;51.560;4.642;2022-09-27T01:17:10;3.50;;;0.60;;
68250;SDS011;55066;51.560;4.642;2022-09-27T01:28:07;3.42;;;0.40;;
68250;SDS011;55066;51.560;4.642;2022-09-27T01:30:53;2.77;;;0.40;;
68250;SDS011;55066;51.560;4.642;2022-09-27T01:33:30;3.97;;;0.60;;
68250;SDS011;55066;51.560;4.642;2022-09-27T01:36:21;4.97;;;0.68;;
68250;SDS011;55066;51.560;4.642;2022-09-27T01:42:01;8.00;;;1.05;;
68250;SDS011;55066;51.560;4.642;2022-09-27T01:47:19;6.75;;;0.80;;
68250;SDS011;55066;51.560;4.642;2022-09-27T01:50:03;6.00;;;0.60;;
68250;SDS011;55066;51.560;4.642;2022-09-27T01:52:40;3.92;;;0.45;;
68250;SDS011;55066;51.560;4.642;2022-09-27T01:55:12;6.13;;;0.70;;
68250;SDS011;55066;51.560;4.642;2022-09-27T01:58:23;6.27;;;1.20;;
68250;SDS011;55066;51.560;4.642;2022-09-27T02:00:55;7.13;;;0.70;;
68250;SDS011;55066;51.560;4.642;2022-09-27T02:03:55;3.90;;;0.60;;
68250;SDS011;55066;51.560;4.642;2022-09-27T02:06:42;7.82;;;0.82;;
68250;SDS011;55066;51.560;4.642;2022-09-27T02:12:15;7.60;;;0.60;;
68250;SDS011;55066;51.560;4.642;2022-09-27T02:14:52;9.70;;;0.82;;
68250;SDS011;55066;51.560;4.642;2022-09-27T02:20:13;5.93;;;0.60;;
68250;SDS011;55066;51.560;4.642;2022-09-27T02:25:48;7.00;;;0.50;;
68250;SDS011;55066;51.560;4.642;2022-09-27T02:28:22;3.85;;;0.85;;
68250;SDS011;55066;51.560;4.642;2022-09-27T02:31:03;4.35;;;0.70;;
68250;SDS011;55066;51.560;4.642;2022-09-27T02:33:34;7.72;;;0.60;;
68250;SDS011;55066;51.560;4.642;2022-09-27T02:36:04;5.00;;;0.57;;
68250;SDS011;55066;51.560;4.642;2022-09-27T02:38:30;6.97;;;0.50;;
68250;SDS011;55066;51.560;4.642;2022-09-27T02:40:58;4.05;;;0.50;;
68250;SDS011;55066;51.560;4.642;2022-09-27T02:43:24;3.60;;;0.43;;
68250;SDS011;55066;51.560;4.642;2022-09-27T02:46:11;2.75;;;0.40;;
68250;SDS011;55066;51.560;4.642;2022-09-27T02:51:39;5.53;;;0.50;;
68250;SDS011;55066;51.560;4.642;2022-09-27T02:54:26;3.53;;;0.40;;
68250;SDS011;55066;51.560;4.642;2022-09-27T03:00:15;4.55;;;0.52;;
68250;SDS011;55066;51.560;4.642;2022-09-27T03:05:37;6.63;;;0.80;;
68250;SDS011;55066;51.560;4.642;2022-09-27T03:08:06;3.83;;;0.53;;
68250;SDS011;55066;51.560;4.642;2022-09-27T03:10:32;5.32;;;0.40;;
68250;SDS011;55066;51.560;4.642;2022-09-27T03:12:58;4.33;;;0.40;;
68250;SDS011;55066;51.560;4.642;2022-09-27T03:15:23;3.85;;;0.30;;
68250;SDS011;55066;51.560;4.642;2022-09-27T03:18:01;7.85;;;0.60;;
68250;SDS011;55066;51.560;4.642;2022-09-27T03:20:32;3.38;;;0.30;;
68250;SDS011;55066;51.560;4.642;2022-09-27T03:23:15;4.97;;;0.60;;
68250;SDS011;55066;51.560;4.642;2022-09-27T03:25:41;1.57;;;0.40;;
68250;SDS011;55066;51.560;4.642;2022-09-27T03:28:07;7.53;;;0.60;;
68250;SDS011;55066;51.560;4.642;2022-09-27T03:30:33;3.33;;;0.50;;
68250;SDS011;55066;51.560;4.642;2022-09-27T03:32:59;2.42;;;0.40;;
68250;SDS011;55066;51.560;4.642;2022-09-27T03:35:44;6.10;;;0.50;;
68250;SDS011;55066;51.560;4.642;2022-09-27T03:38:11;2.47;;;0.53;;
68250;SDS011;55066;51.560;4.642;2022-09-27T03:40:37;2.95;;;0.40;;
68250;SDS011;55066;51.560;4.642;2022-09-27T03:43:04;1.92;;;0.40;;
68250;SDS011;55066;51.560;4.642;2022-09-27T03:45:31;2.47;;;0.43;;
68250;SDS011;55066;51.560;4.642;2022-09-27T03:47:59;2.53;;;0.60;;
68250;SDS011;55066;51.560;4.642;2022-09-27T03:50:24;4.23;;;0.70;;
68250;SDS011;55066;51.560;4.642;2022-09-27T03:52:50;3.22;;;0.47;;
68250;SDS011;55066;51.560;4.642;2022-09-27T03:55:16;2.95;;;0.47;;
68250;SDS011;55066;51.560;4.642;2022-09-27T03:57:45;5.20;;;0.68;;
68250;SDS011;55066;51.560;4.642;2022-09-27T04:00:12;2.78;;;0.40;;
68250;SDS011;55066;51.560;4.642;2022-09-27T04:02:38;2.67;;;0.50;;
68250;SDS011;55066;51.560;4.642;2022-09-27T04:05:42;3.72;;;0.60;;
68250;SDS011;55066;51.560;4.642;2022-09-27T04:08:12;3.90;;;0.50;;
68250;SDS011;55066;51.560;4.642;2022-09-27T04:10:40;6.05;;;0.50;;
68250;SDS011;55066;51.560;4.642;2022-09-27T04:13:06;3.45;;;0.50;;
68250;SDS011;55066;51.560;4.642;2022-09-27T04:15:37;2.50;;;0.40;;
68250;SDS011;55066;51.560;4.642;2022-09-27T04:18:22;3.55;;;0.40;;
68250;SDS011;55066;51.560;4.642;2022-09-27T04:21:07;4.93;;;0.68;;
68250;SDS011;55066;51.560;4.642;2022-09-27T04:23:35;2.35;;;0.50;;
68250;SDS011;55066;51.560;4.642;2022-09-27T04:26:01;2.85;;;0.52;;
68250;SDS011;55066;51.560;4.642;2022-09-27T04:28:51;1.60;;;0.40;;
68250;SDS011;55066;51.560;4.642;2022-09-27T04:31:18;4.18;;;0.40;;
68250;SDS011;55066;51.560;4.642;2022-09-27T04:33:49;2.20;;;0.40;;
68250;SDS011;55066;51.560;4.642;2022-09-27T04:36:20;4.30;;;0.70;;
68250;SDS011;55066;51.560;4.642;2022-09-27T04:39:00;7.07;;;0.60;;
68250;SDS011;55066;51.560;4.642;2022-09-27T04:41:29;4.25;;;0.50;;
68250;SDS011;55066;51.560;4.642;2022-09-27T04:43:55;2.83;;;0.43;;
68250;SDS011;55066;51.560;4.642;2022-09-27T04:46:21;4.05;;;0.60;;
68250;SDS011;55066;51.560;4.642;2022-09-27T04:48:47;4.63;;;1.25;;
68250;SDS011;55066;51.560;4.642;2022-09-27T04:51:13;4.78;;;0.60;;
68250;SDS011;55066;51.560;4.642;2022-09-27T04:53:42;3.97;;;0.57;;
68250;SDS011;55066;51.560;4.642;2022-09-27T04:56:09;2.90;;;0.45;;
68250;SDS011;55066;51.560;4.642;2022-09-27T04:58:35;2.65;;;0.50;;
68250;SDS011;55066;51.560;4.642;2022-09-27T05:01:01;3.57;;;0.50;;
68250;SDS011;55066;51.560;4.642;2022-09-27T05:03:48;2.85;;;0.60;;
68250;SDS011;55066;51.560;4.642;2022-09-27T05:06:14;2.83;;;0.43;;
68250;SDS011;55066;51.560;4.642;2022-09-27T05:08:40;3.55;;;0.57;;
68250;SDS011;55066;51.560;4.642;2022-09-27T05:11:18;4.53;;;0.70;;
68250;SDS011;55066;51.560;4.642;2022-09-27T05:14:02;2.50;;;0.68;;
68250;SDS011;55066;51.560;4.642;2022-09-27T05:16:29;5.10;;;0.50;;
68250;SDS011;55066;51.560;4.642;2022-09-27T05:19:28;3.95;;;0.40;;
68250;SDS011;55066;51.560;4.642;2022-09-27T05:22:00;2.92;;;0.40;;
68250;SDS011;55066;51.560;4.642;2022-09-27T05:24:25;2.67;;;0.40;;
68250;SDS011;55066;51.560;4.642;2022-09-27T05:26:52;2.78;;;0.57;;
68250;SDS011;55066;51.560;4.642;2022-09-27T05:29:18;4.80;;;0.70;;
68250;SDS011;55066;51.560;4.642;2022-09-27T05:31:55;2.95;;;0.75;;
68250;SDS011;55066;51.560;4.642;2022-09-27T05:34:21;1.67;;;0.50;;
68250;SDS011;55066;51.560;4.642;2022-09-27T05:36:55;1.20;;;0.40;;
68250;SDS011;55066;51.560;4.642;2022-09-27T05:39:21;3.93;;;0.77;;
68250;SDS011;55066;51.560;4.642;2022-09-27T05:41:46;4.03;;;0.60;;
68250;SDS011;55066;51.560;4.642;2022-09-27T05:44:14;4.57;;;0.50;;
68250;SDS011;55066;51.560;4.642;2022-09-27T05:46:52;4.88;;;0.75;;
68250;SDS011;55066;51.560;4.642;2022-09-27T05:49:18;2.37;;;0.40;;
68250;SDS011;55066;51.560;4.642;2022-09-27T05:51:44;3.45;;;0.52;;
68250;SDS011;55066;51.560;4.642;2022-09-27T05:54:10;4.50;;;0.60;;
68250;SDS011;55066;51.560;4.642;2022-09-27T05:56:36;3.17;;;0.53;;
68250;SDS011;55066;51.560;4.642;2022-09-27T05:59:07;3.47;;;0.50;;
68250;SDS011;55066;51.560;4.642;2022-09-27T06:01:53;5.15;;;0.90;;
68250;SDS011;55066;51.560;4.642;2022-09-27T06:04:37;2.30;;;0.60;;
68250;SDS011;55066;51.560;4.642;2022-09-27T06:07:29;3.17;;;0.70;;
68250;SDS011;55066;51.560;4.642;2022-09-27T06:09:57;5.28;;;0.85;;
68250;SDS011;55066;51.560;4.642;2022-09-27T06:12:22;3.43;;;0.80;;
68250;SDS011;55066;51.560;4.642;2022-09-27T06:14:51;4.70;;;1.40;;
68250;SDS011;55066;51.560;4.642;2022-09-27T06:17:29;3.65;;;1.33;;
68250;SDS011;55066;51.560;4.642;2022-09-27T06:20:00;7.18;;;1.52;;
68250;SDS011;55066;51.560;4.642;2022-09-27T06:22:26;5.40;;;1.58;;
68250;SDS011;55066;51.560;4.642;2022-09-27T06:24:57;5.45;;;1.63;;
68250;SDS011;55066;51.560;4.642;2022-09-27T06:27:25;4.90;;;1.60;;
68250;SDS011;55066;51.560;4.642;2022-09-27T06:30:10;4.40;;;1.85;;
68250;SDS011;55066;51.560;4.642;2022-09-27T06:32:56;5.97;;;2.30;;
68250;SDS011;55066;51.560;4.642;2022-09-27T06:35:29;4.40;;;1.90;;
68250;SDS011;55066;51.560;4.642;2022-09-27T06:37:55;4.82;;;2.15;;
68250;SDS011;55066;51.560;4.642;2022-09-27T06:40:22;4.60;;;2.37;;
68250;SDS011;55066;51.560;4.642;2022-09-27T06:43:17;10.02;;;2.65;;
68250;SDS011;55066;51.560;4.642;2022-09-27T06:46:07;7.63;;;2.70;;
68250;SDS011;55066;51.560;4.642;2022-09-27T06:48:53;9.52;;;2.97;;
68250;SDS011;55066;51.560;4.642;2022-09-27T06:51:20;9.23;;;3.20;;
68250;SDS011;55066;51.560;4.642;2022-09-27T06:53:47;10.60;;;3.67;;
68250;SDS011;55066;51.560;4.642;2022-09-27T06:56:13;9.05;;;4.05;;
68250;SDS011;55066;51.560;4.642;2022-09-27T06:58:47;10.17;;;4.10;;
68250;SDS011;55066;51.560;4.642;2022-09-27T07:01:40;7.40;;;3.38;;
68250;SDS011;55066;51.560;4.642;2022-09-27T07:04:24;9.73;;;4.88;;
68250;SDS011;55066;51.560;4.642;2022-09-27T07:07:09;13.60;;;5.55;;
68250;SDS011;55066;51.560;4.642;2022-09-27T07:09:39;12.10;;;5.43;;
68250;SDS011;55066;51.560;4.642;2022-09-27T07:12:06;11.03;;;5.27;;
68250;SDS011;55066;51.560;4.642;2022-09-27T07:14:32;15.25;;;6.10;;
68250;SDS011;55066;51.560;4.642;2022-09-27T07:16:59;15.57;;;5.93;;
68250;SDS011;55066;51.560;4.642;2022-09-27T07:19:27;12.27;;;6.20;;
68250;SDS011;55066;51.560;4.642;2022-09-27T07:21:52;13.07;;;5.60;;
68250;SDS011;55066;51.560;4.642;2022-09-27T07:24:18;14.33;;;5.80;;
68250;SDS011;55066;51.560;4.642;2022-09-27T07:26:43;12.40;;;5.57;;
68250;SDS011;55066;51.560;4.642;2022-09-27T07:29:11;12.38;;;5.72;;
68250;SDS011;55066;51.560;4.642;2022-09-27T07:31:37;14.13;;;5.78;;
68250;SDS011;55066;51.560;4.642;2022-09-27T07:34:04;13.38;;;5.97;;
68250;SDS011;55066;51.560;4.642;2022-09-27T07:36:29;11.93;;;5.32;;
68250;SDS011;55066;51.560;4.642;2022-09-27T07:38:57;13.83;;;5.80;;
68250;SDS011;55066;51.560;4.642;2022-09-27T07:41:23;15.75;;;5.63;;
68250;SDS011;55066;51.560;4.642;2022-09-27T07:43:49;16.27;;;5.80;;
68250;SDS011;55066;51.560;4.642;2022-09-27T07:46:16;13.02;;;5.50;;
68250;SDS011;55066;51.560;4.642;2022-09-27T07:48:49;14.00;;;4.85;;
68250;SDS011;55066;51.560;4.642;2022-09-27T07:51:32;12.95;;;4.93;;
68250;SDS011;55066;51.560;4.642;2022-09-27T07:54:17;12.20;;;5.63;;
68250;SDS011;55066;51.560;4.642;2022-09-27T07:57:05;15.68;;;5.32;;
68250;SDS011;55066;51.560;4.642;2022-09-27T07:59:36;12.68;;;5.55;;
68250;SDS011;55066;51.560;4.642;2022-09-27T08:02:02;11.65;;;5.60;;
68250;SDS011;55066;51.560;4.642;2022-09-27T08:04:27;13.40;;;5.43;;
68250;SDS011;55066;51.560;4.642;2022-09-27T08:06:53;13.03;;;4.70;;
68250;SDS011;55066;51.560;4.642;2022-09-27T08:09:19;12.05;;;5.28;;
68250;SDS011;55066;51.560;4.642;2022-09-27T08:11:44;9.60;;;4.40;;
68250;SDS011;55066;51.560;4.642;2022-09-27T08:14:11;18.20;;;4.45;;
68250;SDS011;55066;51.560;4.642;2022-09-27T08:16:40;9.25;;;4.72;;
68250;SDS011;55066;51.560;4.642;2022-09-27T08:19:14;13.93;;;4.80;;
68250;SDS011;55066;51.560;4.642;2022-09-27T08:21:43;14.98;;;4.57;;
68250;SDS011;55066;51.560;4.642;2022-09-27T08:24:20;11.07;;;4.40;;
68250;SDS011;55066;51.560;4.642;2022-09-27T08:27:03;13.15;;;4.40;;
68250;SDS011;55066;51.560;4.642;2022-09-27T08:29:44;13.18;;;4.40;;
68250;SDS011;55066;51.560;4.642;2022-09-27T08:32:10;7.63;;;3.63;;
68250;SDS011;55066;51.560;4.642;2022-09-27T08:34:36;13.05;;;4.20;;
68250;SDS011;55066;51.560;4.642;2022-09-27T08:37:02;12.20;;;4.25;;
68250;SDS011;55066;51.560;4.642;2022-09-27T08:39:28;11.55;;;3.85;;
68250;SDS011;55066;51.560;4.642;2022-09-27T08:42:05;10.73;;;3.45;;
68250;SDS011;55066;51.560;4.642;2022-09-27T08:48:04;6.95;;;2.25;;
68250;SDS011;55066;51.560;4.642;2022-09-27T08:50:31;8.13;;;2.25;;
68250;SDS011;55066;51.560;4.642;2022-09-27T08:53:04;9.00;;;2.30;;
68250;SDS011;55066;51.560;4.642;2022-09-27T08:55:41;6.95;;;2.30;;
68250;SDS011;55066;51.560;4.642;2022-09-27T09:00:46;8.55;;;1.63;;
68250;SDS011;55066;51.560;4.642;2022-09-27T09:03:17;5.13;;;1.50;;
68250;SDS011;55066;51.560;4.642;2022-09-27T09:06:47;5.40;;;1.48;;
68250;SDS011;55066;51.560;4.642;2022-09-27T09:14:50;5.85;;;1.17;;
68250;SDS011;55066;51.560;4.642;2022-09-27T09:17:25;6.40;;;1.20;;
68250;SDS011;55066;51.560;4.642;2022-09-27T09:26:06;1.93;;;0.70;;
68250;SDS011;55066;51.560;4.642;2022-09-27T09:28:40;8.73;;;1.92;;
68250;SDS011;55066;51.560;4.642;2022-09-27T09:33:35;5.43;;;1.10;;
68250;SDS011;55066;51.560;4.642;2022-09-27T09:39:10;4.07;;;1.10;;
68250;SDS011;55066;51.560;4.642;2022-09-27T09:44:37;3.75;;;0.60;;
68250;SDS011;55066;51.560;4.642;2022-09-27T09:47:14;3.15;;;0.88;;
68250;SDS011;55066;51.560;4.642;2022-09-27T09:49:50;4.68;;;1.35;;
68250;SDS011;55066;51.560;4.642;2022-09-27T09:52:22;3.28;;;1.00;;
68250;SDS011;55066;51.560;4.642;2022-09-27T09:55:14;4.88;;;0.80;;
68250;SDS011;55066;51.560;4.642;2022-09-27T09:57:55;3.15;;;0.80;;
68250;SDS011;55066;51.560;4.642;2022-09-27T10:00:32;6.40;;;0.80;;
68250;SDS011;55066;51.560;4.642;2022-09-27T10:02:58;6.28;;;0.80;;
68250;SDS011;55066;51.560;4.642;2022-09-27T10:05:25;5.13;;;1.08;;
68250;SDS011;55066;51.560;4.642;2022-09-27T10:08:00;3.53;;;1.10;;
68250;SDS011;55066;51.560;4.642;2022-09-27T10:10:28;4.78;;;1.20;;
68250;SDS011;55066;51.560;4.642;2022-09-27T10:12:57;3.75;;;1.20;;
68250;SDS011;55066;51.560;4.642;2022-09-27T10:15:28;5.80;;;1.10;;
68250;SDS011;55066;51.560;4.642;2022-09-27T10:17:55;5.45;;;1.10;;
68250;SDS011;55066;51.560;4.642;2022-09-27T10:20:25;2.60;;;0.90;;
68250;SDS011;55066;51.560;4.642;2022-09-27T10:22:57;3.97;;;1.08;;
68250;SDS011;55066;51.560;4.642;2022-09-27T10:28:51;4.57;;;1.30;;
68250;SDS011;55066;51.560;4.642;2022-09-27T10:31:23;4.35;;;1.20;;
68250;SDS011;55066;51.560;4.642;2022-09-27T10:34:03;4.53;;;1.10;;
68250;SDS011;55066;51.560;4.642;2022-09-27T10:36:42;4.43;;;1.10;;
68250;SDS011;55066;51.560;4.642;2022-09-27T10:39:20;4.60;;;1.03;;
68250;SDS011;55066;51.560;4.642;2022-09-27T10:41:46;2.88;;;0.95;;
68250;SDS011;55066;51.560;4.642;2022-09-27T10:44:26;7.13;;;0.95;;
68250;SDS011;55066;51.560;4.642;2022-09-27T10:47:07;5.13;;;1.10;;
68250;SDS011;55066;51.560;4.642;2022-09-27T10:50:01;4.88;;;1.02;;
68250;SDS011;55066;51.560;4.642;2022-09-27T10:52:58;4.20;;;1.00;;
68250;SDS011;55066;51.560;4.642;2022-09-27T10:55:27;4.05;;;1.30;;
68250;SDS011;55066;51.560;4.642;2022-09-27T10:57:59;2.65;;;1.00;;
68250;SDS011;55066;51.560;4.642;2022-09-27T11:00:30;4.15;;;1.45;;
68250;SDS011;55066;51.560;4.642;2022-09-27T11:02:59;4.15;;;1.50;;
68250;SDS011;55066;51.560;4.642;2022-09-27T11:05:45;5.00;;;1.40;;
68250;SDS011;55066;51.560;4.642;2022-09-27T11:11:01;4.33;;;1.27;;
68250;SDS011;55066;51.560;4.642;2022-09-27T11:13:27;5.55;;;1.40;;
68250;SDS011;55066;51.560;4.642;2022-09-27T11:29:37;6.25;;;1.90;;
68250;SDS011;55066;51.560;4.642;2022-09-27T11:58:18;7.63;;;0.80;;
68250;SDS011;55066;51.560;4.642;2022-09-27T12:01:20;3.85;;;0.60;;
68250;SDS011;55066;51.560;4.642;2022-09-27T12:06:58;9.90;;;1.43;;
68250;SDS011;55066;51.560;4.642;2022-09-27T12:09:35;8.63;;;0.88;;
68250;SDS011;55066;51.560;4.642;2022-09-27T12:12:12;5.10;;;0.63;;
68250;SDS011;55066;51.560;4.642;2022-09-27T12:15:03;3.95;;;0.75;;
68250;SDS011;55066;51.560;4.642;2022-09-27T12:17:40;3.78;;;0.70;;
68250;SDS011;55066;51.560;4.642;2022-09-27T12:20:12;3.97;;;0.60;;
68250;SDS011;55066;51.560;4.642;2022-09-27T12:22:59;5.22;;;1.08;;
68250;SDS011;55066;51.560;4.642;2022-09-27T12:25:56;5.75;;;0.70;;
68250;SDS011;55066;51.560;4.642;2022-09-27T12:28:31;3.03;;;0.40;;
68250;SDS011;55066;51.560;4.642;2022-09-27T12:31:32;3.85;;;0.57;;
68250;SDS011;55066;51.560;4.642;2022-09-27T12:36:42;4.03;;;0.75;;
68250;SDS011;55066;51.560;4.642;2022-09-27T12:41:57;3.70;;;0.70;;
68250;SDS011;55066;51.560;4.642;2022-09-27T12:44:37;6.15;;;0.65;;
68250;SDS011;55066;51.560;4.642;2022-09-27T12:47:12;5.63;;;0.80;;
68250;SDS011;55066;51.560;4.642;2022-09-27T12:50:16;5.22;;;0.57;;
68250;SDS011;55066;51.560;4.642;2022-09-27T12:52:51;2.70;;;0.70;;
68250;SDS011;55066;51.560;4.642;2022-09-27T12:58:22;3.15;;;1.02;;
68250;SDS011;55066;51.560;4.642;2022-09-27T13:01:14;3.57;;;0.60;;
68250;SDS011;55066;51.560;4.642;2022-09-27T13:04:12;3.92;;;0.70;;
68250;SDS011;55066;51.560;4.642;2022-09-27T13:07:00;3.45;;;0.60;;
68250;SDS011;55066;51.560;4.642;2022-09-27T13:12:36;2.75;;;0.82;;
68250;SDS011;55066;51.560;4.642;2022-09-27T13:15:05;3.83;;;0.50;;
68250;SDS011;55066;51.560;4.642;2022-09-27T13:23:03;2.95;;;0.60;;
68250;SDS011;55066;51.560;4.642;2022-09-27T13:32:14;6.18;;;1.15;;
68250;SDS011;55066;51.560;4.642;2022-09-27T13:34:39;2.60;;;0.50;;
68250;SDS011;55066;51.560;4.642;2022-09-27T13:48:07;3.83;;;0.70;;
68250;SDS011;55066;51.560;4.642;2022-09-27T13:50:47;5.28;;;0.60;;
68250;SDS011;55066;51.560;4.642;2022-09-27T13:53:18;5.13;;;0.75;;
68250;SDS011;55066;51.560;4.642;2022-09-27T13:55:49;4.40;;;0.80;;
68250;SDS011;55066;51.560;4.642;2022-09-27T13:58:39;6.60;;;1.00;;
68250;SDS011;55066;51.560;4.642;2022-09-27T14:01:43;6.50;;;0.73;;
68250;SDS011;55066;51.560;4.642;2022-09-27T14:04:20;2.83;;;0.60;;
68250;SDS011;55066;51.560;4.642;2022-09-27T14:06:52;3.65;;;0.60;;
68250;SDS011;55066;51.560;4.642;2022-09-27T14:09:25;3.97;;;0.60;;
68250;SDS011;55066;51.560;4.642;2022-09-27T14:12:11;3.95;;;0.70;;
68250;SDS011;55066;51.560;4.642;2022-09-27T14:14:43;5.57;;;0.80;;
68250;SDS011;55066;51.560;4.642;2022-09-27T14:17:12;5.22;;;0.60;;
68250;SDS011;55066;51.560;4.642;2022-09-27T14:19:40;2.28;;;0.55;;
68250;SDS011;55066;51.560;4.642;2022-09-27T14:22:18;8.30;;;1.13;;
68250;SDS011;55066;51.560;4.642;2022-09-27T14:24:56;3.60;;;0.70;;
68250;SDS011;55066;51.560;4.642;2022-09-27T14:27:37;2.78;;;0.60;;
68250;SDS011;55066;51.560;4.642;2022-09-27T14:30:14;6.45;;;0.68;;
68250;SDS011;55066;51.560;4.642;2022-09-27T14:32:49;3.38;;;0.60;;
68250;SDS011;55066;51.560;4.642;2022-09-27T14:35:27;7.00;;;0.80;;
68250;SDS011;55066;51.560;4.642;2022-09-27T14:38:20;4.40;;;0.70;;
68250;SDS011;55066;51.560;4.642;2022-09-27T14:43:18;2.22;;;0.50;;
68250;SDS011;55066;51.560;4.642;2022-09-27T14:45:46;2.47;;;0.60;;
68250;SDS011;55066;51.560;4.642;2022-09-27T14:48:26;4.73;;;0.80;;
68250;SDS011;55066;51.560;4.642;2022-09-27T14:53:43;2.47;;;0.55;;
68250;SDS011;55066;51.560;4.642;2022-09-27T14:56:15;4.07;;;0.80;;
68250;SDS011;55066;51.560;4.642;2022-09-27T14:58:43;4.10;;;0.68;;
68250;SDS011;55066;51.560;4.642;2022-09-27T15:01:17;2.43;;;0.70;;
68250;SDS011;55066;51.560;4.642;2022-09-27T15:03:45;4.10;;;1.23;;
68250;SDS011;55066;51.560;4.642;2022-09-27T15:06:17;3.00;;;0.68;;
68250;SDS011;55066;51.560;4.642;2022-09-27T15:08:43;5.05;;;1.05;;
68250;SDS011;55066;51.560;4.642;2022-09-27T15:11:13;4.13;;;0.70;;
68250;SDS011;55066;51.560;4.642;2022-09-27T15:13:39;4.33;;;0.83;;
68250;SDS011;55066;51.560;4.642;2022-09-27T15:16:12;4.95;;;1.00;;
68250;SDS011;55066;51.560;4.642;2022-09-27T15:18:44;5.28;;;1.23;;
68250;SDS011;55066;51.560;4.642;2022-09-27T15:21:15;4.25;;;1.27;;
68250;SDS011;55066;51.560;4.642;2022-09-27T15:23:52;4.65;;;1.10;;
68250;SDS011;55066;51.560;4.642;2022-09-27T15:26:41;5.23;;;1.10;;
68250;SDS011;55066;51.560;4.642;2022-09-27T15:29:16;4.78;;;1.00;;
68250;SDS011;55066;51.560;4.642;2022-09-27T15:31:57;5.93;;;1.00;;
68250;SDS011;55066;51.560;4.642;2022-09-27T15:34:24;5.80;;;1.48;;
68250;SDS011;55066;51.560;4.642;2022-09-27T15:36:57;6.35;;;1.90;;
68250;SDS011;55066;51.560;4.642;2022-09-27T15:42:00;6.85;;;1.58;;
68250;SDS011;55066;51.560;4.642;2022-09-27T15:44:51;7.50;;;1.60;;
68250;SDS011;55066;51.560;4.642;2022-09-27T15:49:58;6.27;;;0.90;;
68250;SDS011;55066;51.560;4.642;2022-09-27T15:52:48;7.47;;;1.17;;
68250;SDS011;55066;51.560;4.642;2022-09-27T15:55:19;6.38;;;1.40;;
68250;SDS011;55066;51.560;4.642;2022-09-27T15:57:53;6.05;;;1.60;;
68250;SDS011;55066;51.560;4.642;2022-09-27T16:00:23;5.53;;;1.30;;
68250;SDS011;55066;51.560;4.642;2022-09-27T16:02:50;7.03;;;1.43;;
68250;SDS011;55066;51.560;4.642;2022-09-27T16:05:16;4.68;;;1.10;;
68250;SDS011;55066;51.560;4.642;2022-09-27T16:07:41;5.83;;;1.43;;
68250;SDS011;55066;51.560;4.642;2022-09-27T16:10:10;4.45;;;1.10;;
68250;SDS011;55066;51.560;4.642;2022-09-27T16:12:39;4.73;;;1.17;;
68250;SDS011;55066;51.560;4.642;2022-09-27T16:15:05;3.90;;;1.20;;
68250;SDS011;55066;51.560;4.642;2022-09-27T16:17:30;8.03;;;1.37;;
68250;SDS011;55066;51.560;4.642;2022-09-27T16:19:56;6.47;;;1.80;;
68250;SDS011;55066;51.560;4.642;2022-09-27T16:22:22;7.53;;;1.50;;
68250;SDS011;55066;51.560;4.642;2022-09-27T16:24:47;5.38;;;2.05;;
68250;SDS011;55066;51.560;4.642;2022-09-27T16:27:21;7.05;;;1.40;;
68250;SDS011;55066;51.560;4.642;2022-09-27T16:29:47;7.45;;;1.30;;
68250;SDS011;55066;51.560;4.642;2022-09-27T16:32:13;5.43;;;1.02;;
68250;SDS011;55066;51.560;4.642;2022-09-27T16:34:38;4.28;;;1.40;;
68250;SDS011;55066;51.560;4.642;2022-09-27T16:37:03;5.40;;;1.30;;
68250;SDS011;55066;51.560;4.642;2022-09-27T16:39:31;4.78;;;1.10;;
68250;SDS011;55066;51.560;4.642;2022-09-27T16:41:56;5.80;;;1.07;;
68250;SDS011;55066;51.560;4.642;2022-09-27T16:44:21;4.10;;;1.00;;
68250;SDS011;55066;51.560;4.642;2022-09-27T16:46:47;3.30;;;1.00;;
68250;SDS011;55066;51.560;4.642;2022-09-27T16:49:12;3.53;;;1.10;;
68250;SDS011;55066;51.560;4.642;2022-09-27T16:51:57;4.30;;;1.33;;
68250;SDS011;55066;51.560;4.642;2022-09-27T16:54:26;3.60;;;0.85;;
68250;SDS011;55066;51.560;4.642;2022-09-27T16:56:53;4.35;;;1.17;;
68250;SDS011;55066;51.560;4.642;2022-09-27T16:59:20;4.93;;;1.13;;
68250;SDS011;55066;51.560;4.642;2022-09-27T17:01:45;5.00;;;1.97;;
68250;SDS011;55066;51.560;4.642;2022-09-27T17:04:11;7.00;;;2.03;;
68250;SDS011;55066;51.560;4.642;2022-09-27T17:06:38;4.70;;;2.15;;
68250;SDS011;55066;51.560;4.642;2022-09-27T17:09:04;6.20;;;1.92;;
68250;SDS011;55066;51.560;4.642;2022-09-27T17:11:29;5.37;;;1.70;;
68250;SDS011;55066;51.560;4.642;2022-09-27T17:13:55;5.93;;;1.60;;
68250;SDS011;55066;51.560;4.642;2022-09-27T17:16:21;5.83;;;1.73;;
68250;SDS011;55066;51.560;4.642;2022-09-27T17:18:47;3.88;;;1.20;;
68250;SDS011;55066;51.560;4.642;2022-09-27T17:21:12;4.67;;;1.40;;
68250;SDS011;55066;51.560;4.642;2022-09-27T17:23:38;6.30;;;1.30;;
68250;SDS011;55066;51.560;4.642;2022-09-27T17:28:40;5.10;;;1.70;;
68250;SDS011;55066;51.560;4.642;2022-09-27T17:31:07;4.53;;;1.50;;
68250;SDS011;55066;51.560;4.642;2022-09-27T17:33:39;5.25;;;1.67;;
68250;SDS011;55066;51.560;4.642;2022-09-27T17:36:09;5.65;;;1.67;;
68250;SDS011;55066;51.560;4.642;2022-09-27T17:38:37;7.85;;;1.92;;
68250;SDS011;55066;51.560;4.642;2022-09-27T17:41:06;7.75;;;2.05;;
68250;SDS011;55066;51.560;4.642;2022-09-27T17:43:35;8.55;;;2.08;;
68250;SDS011;55066;51.560;4.642;2022-09-27T17:46:06;6.63;;;2.95;;
68250;SDS011;55066;51.560;4.642;2022-09-27T17:48:33;9.80;;;3.15;;
68250;SDS011;55066;51.560;4.642;2022-09-27T17:51:17;6.45;;;2.47;;
68250;SDS011;55066;51.560;4.642;2022-09-27T17:53:43;6.33;;;1.80;;
68250;SDS011;55066;51.560;4.642;2022-09-27T17:56:09;4.70;;;1.83;;
68250;SDS011;55066;51.560;4.642;2022-09-27T17:58:35;4.72;;;1.60;;
68250;SDS011;55066;51.560;4.642;2022-09-27T18:01:01;7.03;;;1.90;;
68250;SDS011;55066;51.560;4.642;2022-09-27T18:03:28;6.88;;;2.15;;